Harbor City, California
Current Conditions -  °F | °C
As of 2:53 AM on Monday 20 Oct 2014 (Local Time) from KLGB Reporting Station
Clear Clear  
Wind Chill: 65°   Ceiling: Unl
Heat Index: 65°   Visibility: 10mi
Dew Point: 62°   Wind: 0mph
Humidity: 90%   Direction: NA
Pressure: 29.88"   Gusts: NA
Location:  33.79°N, 118.3°W
Report Text: KLGB 200953Z 00000KT 10SM CLR 18/17 A2988 RMK AO2 SLP118 T01830167
Loading
Personal Weather Stations






























Interactive Weather Map
Tropical Storm Tracking
New forecast layout! Learn more

10-Day Weather Forecast

Advertisements
Track Severe Weather on mobile